Huvudsida
METAR-TAF:

METAR-TAF

Flygplatser :

Shimla Airport

Shimla, Indien

latitud: 31-04-54N, longitud: 77-04-05E, höjd: 1546 m

Aktuellt väderrapport

Denna rapport gjordes för 14 minuter sedan, klockan 10:00 UTC
Vind 4 kt från väst i byarna ända upp till 14 kt
Temperatur 31°C
Fuktighet 40%
Tryck 1012 hPa
Sikt: 5000 m
Brutna moln på en höjd av 4000 ft
torrdis,

METAR: VISM 201000Z 27004G14KT 5000 HZ BKN040 31/16 Q1012

Tid: 15:44 (10:14 UTC)

Väderprognos

Denna rapport gjordes för 5 timmar och 14 minuter sedan, klockan 05:00 UTC
Prognos gäller från 20 kl. 06 UTC till 20 kl. 15 UTC
Vind 8 kt från väst
Sikt: 5000 m
Brutna moln på en höjd av 4000 ft
torrdis
Blir
från 20 kl. 06 UTC till 20 kl. 08 UTC
Vind 10 kt från väst i byarna ända upp till 20 kt
Sikt: 4000 m
Spridda moln på en höjd av 2000 ft
Brutna moln på en höjd av 4000 ft
torrdis, lätt regn,

TAF: VISM 200500Z 2006/2015 27008KT 5000 HZ BKN040 BECMG 2006/2008 27010G20KT 4000 HZ -RA SCT020 BKN040

Aktuella väderrapporter och prognoser från 4000 flygplatser (METAR- och TAF-rapporter).

De tillgängliga stationerna syns som gula och röda prickar på kartan.

För musen över prickarna för att se namnen på stationerna.

Klicka sedan för att få väderrapporter och prognoser.

För att ändra kartan: Klicka på de gröna knapparna med ett svart kors på för att zooma in; den gröna knappen med ett streck på för att zooma ut; eller på de gröna pilarna för angränsande kartor.


METAR-TAF: